sensor_id;sensor_type;location;lat;lon;timestamp;P1;durP1;ratioP1;P2;durP2;ratioP2
34035;SDS011;63481;52.588;22.472;2023-02-15T00:01:08;22.70;;;11.20;;
34035;SDS011;63481;52.588;22.472;2023-02-15T00:02:02;21.50;;;11.80;;
34035;SDS011;63481;52.588;22.472;2023-02-15T00:02:56;18.60;;;12.10;;
34035;SDS011;63481;52.588;22.472;2023-02-15T00:03:49;20.90;;;11.60;;
34035;SDS011;63481;52.588;22.472;2023-02-15T00:04:43;21.10;;;11.50;;
34035;SDS011;63481;52.588;22.472;2023-02-15T00:05:40;22.40;;;10.40;;
34035;SDS011;63481;52.588;22.472;2023-02-15T00:06:33;28.20;;;13.80;;
34035;SDS011;63481;52.588;22.472;2023-02-15T00:07:26;19.90;;;10.00;;
34035;SDS011;63481;52.588;22.472;2023-02-15T00:08:20;18.30;;;10.50;;
34035;SDS011;63481;52.588;22.472;2023-02-15T00:09:13;21.30;;;10.40;;
34035;SDS011;63481;52.588;22.472;2023-02-15T00:10:07;22.10;;;11.40;;
34035;SDS011;63481;52.588;22.472;2023-02-15T00:11:07;18.10;;;10.20;;
34035;SDS011;63481;52.588;22.472;2023-02-15T00:12:02;18.70;;;10.20;;
34035;SDS011;63481;52.588;22.472;2023-02-15T00:12:55;16.80;;;9.80;;
34035;SDS011;63481;52.588;22.472;2023-02-15T00:13:48;19.30;;;10.40;;
34035;SDS011;63481;52.588;22.472;2023-02-15T00:14:41;20.30;;;11.10;;
34035;SDS011;63481;52.588;22.472;2023-02-15T00:15:35;18.80;;;10.30;;
34035;SDS011;63481;52.588;22.472;2023-02-15T00:16:28;18.40;;;10.60;;
34035;SDS011;63481;52.588;22.472;2023-02-15T00:17:21;24.20;;;11.70;;
34035;SDS011;63481;52.588;22.472;2023-02-15T00:18:15;20.40;;;10.40;;
34035;SDS011;63481;52.588;22.472;2023-02-15T00:19:08;18.10;;;10.40;;
34035;SDS011;63481;52.588;22.472;2023-02-15T00:20:03;17.30;;;10.90;;
34035;SDS011;63481;52.588;22.472;2023-02-15T00:20:58;20.80;;;10.60;;
34035;SDS011;63481;52.588;22.472;2023-02-15T00:21:55;19.00;;;11.20;;
34035;SDS011;63481;52.588;22.472;2023-02-15T00:22:49;17.20;;;9.80;;
34035;SDS011;63481;52.588;22.472;2023-02-15T00:23:42;19.80;;;10.50;;
34035;SDS011;63481;52.588;22.472;2023-02-15T00:24:35;20.00;;;10.40;;
34035;SDS011;63481;52.588;22.472;2023-02-15T00:25:29;17.10;;;9.90;;
34035;SDS011;63481;52.588;22.472;2023-02-15T00:26:22;20.30;;;10.10;;
34035;SDS011;63481;52.588;22.472;2023-02-15T00:27:15;21.30;;;11.00;;
34035;SDS011;63481;52.588;22.472;2023-02-15T00:28:09;19.40;;;10.30;;
34035;SDS011;63481;52.588;22.472;2023-02-15T00:29:02;19.00;;;10.30;;
34035;SDS011;63481;52.588;22.472;2023-02-15T00:29:55;18.20;;;10.00;;
34035;SDS011;63481;52.588;22.472;2023-02-15T00:30:48;20.80;;;11.70;;
34035;SDS011;63481;52.588;22.472;2023-02-15T00:31:41;20.00;;;10.80;;
34035;SDS011;63481;52.588;22.472;2023-02-15T00:32:37;22.60;;;11.70;;
34035;SDS011;63481;52.588;22.472;2023-02-15T00:33:30;20.20;;;11.50;;
34035;SDS011;63481;52.588;22.472;2023-02-15T00:34:25;18.10;;;10.50;;
34035;SDS011;63481;52.588;22.472;2023-02-15T00:35:19;23.20;;;10.60;;
34035;SDS011;63481;52.588;22.472;2023-02-15T00:36:13;21.10;;;11.40;;
34035;SDS011;63481;52.588;22.472;2023-02-15T00:37:07;19.60;;;10.80;;
34035;SDS011;63481;52.588;22.472;2023-02-15T00:38:00;19.20;;;10.90;;
34035;SDS011;63481;52.588;22.472;2023-02-15T00:38:53;20.90;;;12.00;;
34035;SDS011;63481;52.588;22.472;2023-02-15T00:39:46;25.40;;;12.50;;
34035;SDS011;63481;52.588;22.472;2023-02-15T00:40:43;22.30;;;12.90;;
34035;SDS011;63481;52.588;22.472;2023-02-15T00:41:36;21.60;;;13.20;;
34035;SDS011;63481;52.588;22.472;2023-02-15T00:42:30;19.20;;;11.80;;
34035;SDS011;63481;52.588;22.472;2023-02-15T00:43:23;19.80;;;12.30;;
34035;SDS011;63481;52.588;22.472;2023-02-15T00:44:17;27.40;;;15.20;;
34035;SDS011;63481;52.588;22.472;2023-02-15T00:45:10;24.40;;;12.90;;
34035;SDS011;63481;52.588;22.472;2023-02-15T00:46:04;23.60;;;12.60;;
34035;SDS011;63481;52.588;22.472;2023-02-15T00:46:58;22.20;;;13.20;;
34035;SDS011;63481;52.588;22.472;2023-02-15T00:47:51;21.50;;;12.70;;
34035;SDS011;63481;52.588;22.472;2023-02-15T00:48:44;22.40;;;12.50;;
34035;SDS011;63481;52.588;22.472;2023-02-15T00:49:37;22.70;;;13.80;;
34035;SDS011;63481;52.588;22.472;2023-02-15T00:50:31;20.40;;;12.60;;
34035;SDS011;63481;52.588;22.472;2023-02-15T00:51:24;19.60;;;12.30;;
34035;SDS011;63481;52.588;22.472;2023-02-15T00:52:17;21.70;;;14.00;;
34035;SDS011;63481;52.588;22.472;2023-02-15T00:53:11;22.30;;;13.70;;
34035;SDS011;63481;52.588;22.472;2023-02-15T00:54:05;40.50;;;29.70;;
34035;SDS011;63481;52.588;22.472;2023-02-15T00:54:58;52.60;;;36.90;;
34035;SDS011;63481;52.588;22.472;2023-02-15T00:55:52;20.90;;;14.40;;
34035;SDS011;63481;52.588;22.472;2023-02-15T00:56:46;28.90;;;17.50;;
34035;SDS011;63481;52.588;22.472;2023-02-15T00:57:39;27.30;;;16.80;;
34035;SDS011;63481;52.588;22.472;2023-02-15T00:58:33;38.00;;;25.00;;
34035;SDS011;63481;52.588;22.472;2023-02-15T00:59:26;51.70;;;38.20;;
34035;SDS011;63481;52.588;22.472;2023-02-15T01:00:19;22.90;;;15.20;;
34035;SDS011;63481;52.588;22.472;2023-02-15T01:01:14;24.60;;;15.00;;
34035;SDS011;63481;52.588;22.472;2023-02-15T01:02:09;25.50;;;14.70;;
34035;SDS011;63481;52.588;22.472;2023-02-15T01:03:02;24.70;;;14.80;;
34035;SDS011;63481;52.588;22.472;2023-02-15T01:03:56;23.50;;;15.00;;
34035;SDS011;63481;52.588;22.472;2023-02-15T01:04:49;23.20;;;14.80;;
34035;SDS011;63481;52.588;22.472;2023-02-15T01:05:42;21.50;;;14.30;;
34035;SDS011;63481;52.588;22.472;2023-02-15T01:06:36;23.40;;;13.50;;
34035;SDS011;63481;52.588;22.472;2023-02-15T01:07:29;25.00;;;14.40;;
34035;SDS011;63481;52.588;22.472;2023-02-15T01:08:23;24.20;;;14.00;;
34035;SDS011;63481;52.588;22.472;2023-02-15T01:09:16;25.90;;;14.90;;
34035;SDS011;63481;52.588;22.472;2023-02-15T01:10:09;19.40;;;13.20;;
34035;SDS011;63481;52.588;22.472;2023-02-15T01:11:06;22.30;;;13.90;;
34035;SDS011;63481;52.588;22.472;2023-02-15T01:12:07;22.70;;;14.80;;
34035;SDS011;63481;52.588;22.472;2023-02-15T01:13:01;25.00;;;14.60;;
34035;SDS011;63481;52.588;22.472;2023-02-15T01:13:56;22.50;;;14.20;;
34035;SDS011;63481;52.588;22.472;2023-02-15T01:14:50;24.30;;;14.60;;
34035;SDS011;63481;52.588;22.472;2023-02-15T01:15:43;23.10;;;14.50;;
34035;SDS011;63481;52.588;22.472;2023-02-15T01:16:37;25.20;;;16.10;;
34035;SDS011;63481;52.588;22.472;2023-02-15T01:17:31;23.80;;;14.50;;
34035;SDS011;63481;52.588;22.472;2023-02-15T01:18:25;26.90;;;15.50;;
34035;SDS011;63481;52.588;22.472;2023-02-15T01:19:19;23.20;;;14.60;;
34035;SDS011;63481;52.588;22.472;2023-02-15T01:20:12;24.40;;;15.10;;
34035;SDS011;63481;52.588;22.472;2023-02-15T01:21:08;23.50;;;14.50;;
34035;SDS011;63481;52.588;22.472;2023-02-15T01:22:06;23.30;;;14.80;;
34035;SDS011;63481;52.588;22.472;2023-02-15T01:23:02;22.30;;;14.40;;
34035;SDS011;63481;52.588;22.472;2023-02-15T01:23:55;22.30;;;14.00;;
34035;SDS011;63481;52.588;22.472;2023-02-15T01:24:49;24.40;;;13.60;;
34035;SDS011;63481;52.588;22.472;2023-02-15T01:25:42;26.80;;;14.00;;
34035;SDS011;63481;52.588;22.472;2023-02-15T01:26:36;24.60;;;15.30;;
34035;SDS011;63481;52.588;22.472;2023-02-15T01:27:31;23.70;;;14.50;;
34035;SDS011;63481;52.588;22.472;2023-02-15T01:28:23;26.40;;;14.50;;
34035;SDS011;63481;52.588;22.472;2023-02-15T01:29:16;22.60;;;14.00;;
34035;SDS011;63481;52.588;22.472;2023-02-15T01:30:09;22.70;;;14.00;;
34035;SDS011;63481;52.588;22.472;2023-02-15T01:31:09;27.80;;;15.00;;
34035;SDS011;63481;52.588;22.472;2023-02-15T01:32:07;26.50;;;14.20;;
34035;SDS011;63481;52.588;22.472;2023-02-15T01:33:01;23.20;;;14.20;;
34035;SDS011;63481;52.588;22.472;2023-02-15T01:33:57;25.60;;;13.40;;
34035;SDS011;63481;52.588;22.472;2023-02-15T01:34:51;23.70;;;13.50;;
34035;SDS011;63481;52.588;22.472;2023-02-15T01:35:46;27.60;;;13.90;;
34035;SDS011;63481;52.588;22.472;2023-02-15T01:36:39;21.60;;;13.70;;
34035;SDS011;63481;52.588;22.472;2023-02-15T01:37:33;21.30;;;13.40;;
34035;SDS011;63481;52.588;22.472;2023-02-15T01:38:27;20.50;;;13.00;;
34035;SDS011;63481;52.588;22.472;2023-02-15T01:39:20;21.60;;;12.80;;
34035;SDS011;63481;52.588;22.472;2023-02-15T01:40:15;22.30;;;13.00;;
34035;SDS011;63481;52.588;22.472;2023-02-15T01:41:09;19.80;;;13.30;;
34035;SDS011;63481;52.588;22.472;2023-02-15T01:42:25;25.10;;;13.50;;
34035;SDS011;63481;52.588;22.472;2023-02-15T01:43:19;20.70;;;12.80;;
34035;SDS011;63481;52.588;22.472;2023-02-15T01:45:54;22.60;;;11.70;;
34035;SDS011;63481;52.588;22.472;2023-02-15T01:46:49;21.50;;;12.40;;
34035;SDS011;63481;52.588;22.472;2023-02-15T01:47:46;22.00;;;12.90;;
34035;SDS011;63481;52.588;22.472;2023-02-15T01:48:47;24.30;;;13.20;;
34035;SDS011;63481;52.588;22.472;2023-02-15T01:49:45;21.70;;;12.40;;
34035;SDS011;63481;52.588;22.472;2023-02-15T01:50:41;21.30;;;13.40;;
34035;SDS011;63481;52.588;22.472;2023-02-15T01:51:37;22.20;;;13.70;;
34035;SDS011;63481;52.588;22.472;2023-02-15T01:52:34;22.40;;;13.60;;
34035;SDS011;63481;52.588;22.472;2023-02-15T01:53:32;20.50;;;12.40;;
34035;SDS011;63481;52.588;22.472;2023-02-15T01:54:29;21.40;;;12.40;;
34035;SDS011;63481;52.588;22.472;2023-02-15T01:55:27;21.50;;;12.90;;
34035;SDS011;63481;52.588;22.472;2023-02-15T01:56:27;22.20;;;13.90;;
34035;SDS011;63481;52.588;22.472;2023-02-15T01:57:23;21.60;;;12.80;;
34035;SDS011;63481;52.588;22.472;2023-02-15T01:58:19;24.40;;;13.20;;
34035;SDS011;63481;52.588;22.472;2023-02-15T01:59:15;23.10;;;13.40;;
34035;SDS011;63481;52.588;22.472;2023-02-15T02:00:12;24.00;;;13.00;;
34035;SDS011;63481;52.588;22.472;2023-02-15T02:01:07;22.40;;;12.90;;
34035;SDS011;63481;52.588;22.472;2023-02-15T02:02:01;23.60;;;12.80;;
34035;SDS011;63481;52.588;22.472;2023-02-15T02:02:57;21.50;;;12.70;;
34035;SDS011;63481;52.588;22.472;2023-02-15T02:05:16;20.50;;;12.60;;
34035;SDS011;63481;52.588;22.472;2023-02-15T02:06:10;22.50;;;13.50;;
34035;SDS011;63481;52.588;22.472;2023-02-15T02:07:06;22.40;;;12.60;;
34035;SDS011;63481;52.588;22.472;2023-02-15T02:08:02;26.00;;;13.30;;
34035;SDS011;63481;52.588;22.472;2023-02-15T02:08:57;22.10;;;13.30;;
34035;SDS011;63481;52.588;22.472;2023-02-15T02:09:51;23.70;;;13.40;;
34035;SDS011;63481;52.588;22.472;2023-02-15T02:10:45;23.90;;;13.30;;
34035;SDS011;63481;52.588;22.472;2023-02-15T02:11:39;26.30;;;13.30;;
34035;SDS011;63481;52.588;22.472;2023-02-15T02:12:33;24.40;;;13.50;;
34035;SDS011;63481;52.588;22.472;2023-02-15T02:13:29;20.90;;;12.60;;
34035;SDS011;63481;52.588;22.472;2023-02-15T02:14:22;25.50;;;13.00;;
34035;SDS011;63481;52.588;22.472;2023-02-15T02:15:16;21.40;;;12.80;;
34035;SDS011;63481;52.588;22.472;2023-02-15T02:17:21;21.40;;;12.80;;
34035;SDS011;63481;52.588;22.472;2023-02-15T02:23:00;20.20;;;11.80;;
34035;SDS011;63481;52.588;22.472;2023-02-15T02:27:47;28.70;;;15.30;;
34035;SDS011;63481;52.588;22.472;2023-02-15T02:30:09;27.00;;;16.10;;
34035;SDS011;63481;52.588;22.472;2023-02-15T02:33:51;20.30;;;12.10;;
34035;SDS011;63481;52.588;22.472;2023-02-15T02:36:04;23.10;;;12.40;;
34035;SDS011;63481;52.588;22.472;2023-02-15T02:40:13;19.00;;;11.80;;
34035;SDS011;63481;52.588;22.472;2023-02-15T02:42:34;19.00;;;12.00;;
34035;SDS011;63481;52.588;22.472;2023-02-15T02:43:47;20.50;;;12.30;;
34035;SDS011;63481;52.588;22.472;2023-02-15T02:44:51;20.40;;;11.80;;
34035;SDS011;63481;52.588;22.472;2023-02-15T02:46:33;17.40;;;11.30;;
34035;SDS011;63481;52.588;22.472;2023-02-15T02:47:15;20.10;;;12.40;;
34035;SDS011;63481;52.588;22.472;2023-02-15T02:48:20;22.70;;;12.20;;
34035;SDS011;63481;52.588;22.472;2023-02-15T02:49:28;20.90;;;12.20;;
34035;SDS011;63481;52.588;22.472;2023-02-15T02:50:23;22.40;;;12.70;;
34035;SDS011;63481;52.588;22.472;2023-02-15T02:51:19;19.50;;;11.90;;
34035;SDS011;63481;52.588;22.472;2023-02-15T02:53:33;22.30;;;13.00;;
34035;SDS011;63481;52.588;22.472;2023-02-15T02:54:27;22.50;;;12.60;;
34035;SDS011;63481;52.588;22.472;2023-02-15T02:55:28;25.40;;;12.00;;
34035;SDS011;63481;52.588;22.472;2023-02-15T02:56:30;21.40;;;11.60;;
34035;SDS011;63481;52.588;22.472;2023-02-15T02:57:24;22.20;;;11.60;;
34035;SDS011;63481;52.588;22.472;2023-02-15T02:58:26;19.50;;;12.00;;
34035;SDS011;63481;52.588;22.472;2023-02-15T02:59:25;23.40;;;13.10;;
34035;SDS011;63481;52.588;22.472;2023-02-15T03:00:23;22.80;;;12.40;;
34035;SDS011;63481;52.588;22.472;2023-02-15T03:02:22;24.20;;;12.60;;
34035;SDS011;63481;52.588;22.472;2023-02-15T03:03:20;22.10;;;11.80;;
34035;SDS011;63481;52.588;22.472;2023-02-15T03:04:16;20.90;;;12.70;;
34035;SDS011;63481;52.588;22.472;2023-02-15T03:05:13;22.80;;;12.20;;
34035;SDS011;63481;52.588;22.472;2023-02-15T03:06:13;24.20;;;13.10;;
34035;SDS011;63481;52.588;22.472;2023-02-15T03:07:14;22.20;;;12.80;;
34035;SDS011;63481;52.588;22.472;2023-02-15T03:08:14;23.50;;;12.60;;
34035;SDS011;63481;52.588;22.472;2023-02-15T03:09:25;22.70;;;12.90;;
34035;SDS011;63481;52.588;22.472;2023-02-15T03:10:35;23.20;;;12.40;;
34035;SDS011;63481;52.588;22.472;2023-02-15T03:11:31;23.10;;;12.70;;
34035;SDS011;63481;52.588;22.472;2023-02-15T03:12:27;20.60;;;11.90;;
34035;SDS011;63481;52.588;22.472;2023-02-15T03:13:23;22.40;;;12.70;;
34035;SDS011;63481;52.588;22.472;2023-02-15T03:14:17;27.10;;;13.10;;
34035;SDS011;63481;52.588;22.472;2023-02-15T03:16:43;22.10;;;12.90;;
34035;SDS011;63481;52.588;22.472;2023-02-15T03:17:43;20.20;;;11.90;;
34035;SDS011;63481;52.588;22.472;2023-02-15T03:18:44;23.90;;;12.70;;
34035;SDS011;63481;52.588;22.472;2023-02-15T03:19:47;22.00;;;11.90;;
34035;SDS011;63481;52.588;22.472;2023-02-15T03:20:44;23.40;;;12.70;;
34035;SDS011;63481;52.588;22.472;2023-02-15T03:21:42;23.60;;;12.50;;
34035;SDS011;63481;52.588;22.472;2023-02-15T03:22:51;23.60;;;12.10;;
34035;SDS011;63481;52.588;22.472;2023-02-15T03:23:49;22.50;;;12.00;;
34035;SDS011;63481;52.588;22.472;2023-02-15T03:24:48;20.90;;;12.20;;
34035;SDS011;63481;52.588;22.472;2023-02-15T03:25:44;21.20;;;12.10;;
34035;SDS011;63481;52.588;22.472;2023-02-15T03:26:43;23.70;;;13.30;;
34035;SDS011;63481;52.588;22.472;2023-02-15T03:27:45;22.10;;;12.10;;
34035;SDS011;63481;52.588;22.472;2023-02-15T03:28:42;21.10;;;12.50;;
34035;SDS011;63481;52.588;22.472;2023-02-15T03:29:38;24.20;;;13.30;;
34035;SDS011;63481;52.588;22.472;2023-02-15T03:30:32;26.80;;;13.20;;
34035;SDS011;63481;52.588;22.472;2023-02-15T03:31:29;23.50;;;13.00;;
34035;SDS011;63481;52.588;22.472;2023-02-15T03:32:27;23.30;;;13.60;;
34035;SDS011;63481;52.588;22.472;2023-02-15T03:33:24;23.20;;;13.10;;
34035;SDS011;63481;52.588;22.472;2023-02-15T03:34:20;24.80;;;14.10;;
34035;SDS011;63481;52.588;22.472;2023-02-15T03:35:14;22.30;;;12.80;;
34035;SDS011;63481;52.588;22.472;2023-02-15T03:36:09;21.70;;;13.00;;
34035;SDS011;63481;52.588;22.472;2023-02-15T03:38:53;19.80;;;11.60;;
34035;SDS011;63481;52.588;22.472;2023-02-15T03:39:56;24.00;;;12.30;;
34035;SDS011;63481;52.588;22.472;2023-02-15T03:41:13;23.30;;;12.50;;
34035;SDS011;63481;52.588;22.472;2023-02-15T03:44:04;22.50;;;12.10;;
34035;SDS011;63481;52.588;22.472;2023-02-15T03:45:05;21.60;;;12.00;;
34035;SDS011;63481;52.588;22.472;2023-02-15T03:46:11;21.90;;;12.00;;
34035;SDS011;63481;52.588;22.472;2023-02-15T03:47:12;21.80;;;11.00;;
34035;SDS011;63481;52.588;22.472;2023-02-15T03:48:08;20.70;;;11.90;;
34035;SDS011;63481;52.588;22.472;2023-02-15T03:49:17;23.30;;;12.10;;
34035;SDS011;63481;52.588;22.472;2023-02-15T03:50:21;21.40;;;12.80;;
34035;SDS011;63481;52.588;22.472;2023-02-15T03:51:38;20.80;;;10.80;;
34035;SDS011;63481;52.588;22.472;2023-02-15T03:52:34;20.80;;;11.30;;
34035;SDS011;63481;52.588;22.472;2023-02-15T03:53:28;20.40;;;12.50;;
34035;SDS011;63481;52.588;22.472;2023-02-15T03:54:24;23.80;;;12.50;;
34035;SDS011;63481;52.588;22.472;2023-02-15T03:55:35;22.60;;;12.60;;
34035;SDS011;63481;52.588;22.472;2023-02-15T03:56:29;20.70;;;12.90;;
34035;SDS011;63481;52.588;22.472;2023-02-15T03:57:24;21.90;;;13.20;;
34035;SDS011;63481;52.588;22.472;2023-02-15T03:58:38;25.50;;;12.70;;
34035;SDS011;63481;52.588;22.472;2023-02-15T04:01:52;24.20;;;12.50;;
34035;SDS011;63481;52.588;22.472;2023-02-15T04:04:08;23.70;;;13.50;;
34035;SDS011;63481;52.588;22.472;2023-02-15T04:05:08;24.80;;;13.70;;
34035;SDS011;63481;52.588;22.472;2023-02-15T04:06:02;20.40;;;12.70;;
34035;SDS011;63481;52.588;22.472;2023-02-15T04:06:55;20.30;;;11.80;;
34035;SDS011;63481;52.588;22.472;2023-02-15T04:07:48;23.80;;;13.00;;
34035;SDS011;63481;52.588;22.472;2023-02-15T04:08:41;22.60;;;12.70;;
34035;SDS011;63481;52.588;22.472;2023-02-15T04:09:53;20.50;;;12.30;;
34035;SDS011;63481;52.588;22.472;2023-02-15T04:11:04;25.40;;;13.50;;
34035;SDS011;63481;52.588;22.472;2023-02-15T04:11:57;26.50;;;13.60;;
34035;SDS011;63481;52.588;22.472;2023-02-15T04:12:51;23.10;;;12.70;;
34035;SDS011;63481;52.588;22.472;2023-02-15T04:13:44;23.30;;;13.00;;
34035;SDS011;63481;52.588;22.472;2023-02-15T04:14:37;25.00;;;13.90;;
34035;SDS011;63481;52.588;22.472;2023-02-15T04:15:48;24.90;;;13.60;;
34035;SDS011;63481;52.588;22.472;2023-02-15T04:16:57;24.40;;;13.10;;
34035;SDS011;63481;52.588;22.472;2023-02-15T04:17:50;24.10;;;13.40;;
34035;SDS011;63481;52.588;22.472;2023-02-15T04:18:44;24.50;;;13.20;;
34035;SDS011;63481;52.588;22.472;2023-02-15T04:19:56;27.40;;;14.20;;
34035;SDS011;63481;52.588;22.472;2023-02-15T04:21:08;24.90;;;13.30;;
34035;SDS011;63481;52.588;22.472;2023-02-15T04:22:20;23.70;;;13.50;;
34035;SDS011;63481;52.588;22.472;2023-02-15T04:23:32;27.70;;;13.80;;
34035;SDS011;63481;52.588;22.472;2023-02-15T04:24:44;24.30;;;14.90;;
34035;SDS011;63481;52.588;22.472;2023-02-15T04:25:56;27.00;;;14.00;;
34035;SDS011;63481;52.588;22.472;2023-02-15T04:26:49;30.80;;;15.90;;
34035;SDS011;63481;52.588;22.472;2023-02-15T04:27:47;27.90;;;15.10;;
34035;SDS011;63481;52.588;22.472;2023-02-15T04:28:42;24.40;;;13.60;;
34035;SDS011;63481;52.588;22.472;2023-02-15T04:29:34;26.70;;;14.50;;
34035;SDS011;63481;52.588;22.472;2023-02-15T04:30:27;26.10;;;15.60;;
34035;SDS011;63481;52.588;22.472;2023-02-15T04:31:20;25.20;;;15.10;;
34035;SDS011;63481;52.588;22.472;2023-02-15T04:32:14;27.30;;;14.70;;
34035;SDS011;63481;52.588;22.472;2023-02-15T04:33:06;26.80;;;14.70;;
34035;SDS011;63481;52.588;22.472;2023-02-15T04:34:00;25.70;;;14.00;;
34035;SDS011;63481;52.588;22.472;2023-02-15T04:34:52;23.90;;;15.20;;
34035;SDS011;63481;52.588;22.472;2023-02-15T04:35:45;28.40;;;15.00;;
34035;SDS011;63481;52.588;22.472;2023-02-15T04:36:38;26.40;;;14.70;;
34035;SDS011;63481;52.588;22.472;2023-02-15T04:37:32;26.20;;;14.40;;
34035;SDS011;63481;52.588;22.472;2023-02-15T04:38:25;24.10;;;14.60;;
34035;SDS011;63481;52.588;22.472;2023-02-15T04:39:18;22.80;;;13.70;;
34035;SDS011;63481;52.588;22.472;2023-02-15T04:40:13;24.10;;;14.10;;
34035;SDS011;63481;52.588;22.472;2023-02-15T04:41:07;25.50;;;13.50;;
34035;SDS011;63481;52.588;22.472;2023-02-15T04:42:01;24.80;;;13.60;;
34035;SDS011;63481;52.588;22.472;2023-02-15T04:42:53;24.40;;;13.80;;
34035;SDS011;63481;52.588;22.472;2023-02-15T04:43:46;25.30;;;13.30;;
34035;SDS011;63481;52.588;22.472;2023-02-15T04:44:38;23.50;;;14.10;;
34035;SDS011;63481;52.588;22.472;2023-02-15T04:45:31;27.00;;;15.40;;
34035;SDS011;63481;52.588;22.472;2023-02-15T04:46:24;25.20;;;15.20;;
34035;SDS011;63481;52.588;22.472;2023-02-15T04:47:17;23.30;;;14.70;;
34035;SDS011;63481;52.588;22.472;2023-02-15T04:48:10;26.50;;;15.30;;
34035;SDS011;63481;52.588;22.472;2023-02-15T04:49:02;23.40;;;14.60;;
34035;SDS011;63481;52.588;22.472;2023-02-15T04:49:55;26.00;;;14.50;;
34035;SDS011;63481;52.588;22.472;2023-02-15T04:50:48;28.50;;;15.30;;
34035;SDS011;63481;52.588;22.472;2023-02-15T04:51:41;28.50;;;16.40;;
34035;SDS011;63481;52.588;22.472;2023-02-15T04:52:35;27.90;;;16.10;;
34035;SDS011;63481;52.588;22.472;2023-02-15T04:53:28;27.60;;;15.10;;
34035;SDS011;63481;52.588;22.472;2023-02-15T04:54:21;25.50;;;15.50;;
34035;SDS011;63481;52.588;22.472;2023-02-15T04:55:13;28.90;;;16.70;;
34035;SDS011;63481;52.588;22.472;2023-02-15T04:56:06;28.40;;;17.40;;
34035;SDS011;63481;52.588;22.472;2023-02-15T04:56:59;29.60;;;17.30;;
34035;SDS011;63481;52.588;22.472;2023-02-15T04:57:53;30.90;;;16.50;;
34035;SDS011;63481;52.588;22.472;2023-02-15T04:58:47;29.00;;;17.10;;
34035;SDS011;63481;52.588;22.472;2023-02-15T04:59:40;28.00;;;15.90;;
34035;SDS011;63481;52.588;22.472;2023-02-15T05:00:33;26.50;;;15.70;;
34035;SDS011;63481;52.588;22.472;2023-02-15T05:01:27;24.70;;;15.60;;
34035;SDS011;63481;52.588;22.472;2023-02-15T05:02:20;30.80;;;17.40;;
34035;SDS011;63481;52.588;22.472;2023-02-15T05:03:15;30.30;;;16.80;;
34035;SDS011;63481;52.588;22.472;2023-02-15T05:04:08;26.20;;;15.70;;
34035;SDS011;63481;52.588;22.472;2023-02-15T05:05:01;28.30;;;16.20;;
34035;SDS011;63481;52.588;22.472;2023-02-15T05:05:55;28.60;;;16.00;;
34035;SDS011;63481;52.588;22.472;2023-02-15T05:06:48;29.70;;;16.10;;
34035;SDS011;63481;52.588;22.472;2023-02-15T05:07:41;28.20;;;15.40;;
34035;SDS011;63481;52.588;22.472;2023-02-15T05:08:35;26.00;;;16.10;;
34035;SDS011;63481;52.588;22.472;2023-02-15T05:09:28;31.20;;;16.30;;
34035;SDS011;63481;52.588;22.472;2023-02-15T05:10:21;26.30;;;15.60;;
34035;SDS011;63481;52.588;22.472;2023-02-15T05:11:15;27.50;;;15.50;;
34035;SDS011;63481;52.588;22.472;2023-02-15T05:12:08;26.20;;;15.70;;
34035;SDS011;63481;52.588;22.472;2023-02-15T05:13:01;30.50;;;17.50;;
34035;SDS011;63481;52.588;22.472;2023-02-15T05:13:54;27.70;;;16.30;;
34035;SDS011;63481;52.588;22.472;2023-02-15T05:14:48;25.00;;;15.50;;
34035;SDS011;63481;52.588;22.472;2023-02-15T05:15:41;26.30;;;16.60;;
34035;SDS011;63481;52.588;22.472;2023-02-15T05:16:39;28.70;;;16.60;;
34035;SDS011;63481;52.588;22.472;2023-02-15T05:17:32;27.30;;;16.10;;
34035;SDS011;63481;52.588;22.472;2023-02-15T05:18:26;28.50;;;16.40;;
34035;SDS011;63481;52.588;22.472;2023-02-15T05:19:20;28.10;;;16.10;;
34035;SDS011;63481;52.588;22.472;2023-02-15T05:20:13;28.90;;;16.90;;
34035;SDS011;63481;52.588;22.472;2023-02-15T05:21:06;30.40;;;17.40;;
34035;SDS011;63481;52.588;22.472;2023-02-15T05:22:00;29.60;;;16.90;;
34035;SDS011;63481;52.588;22.472;2023-02-15T05:22:53;28.60;;;16.40;;
34035;SDS011;63481;52.588;22.472;2023-02-15T05:23:47;27.10;;;16.30;;
34035;SDS011;63481;52.588;22.472;2023-02-15T05:24:40;27.70;;;17.30;;
34035;SDS011;63481;52.588;22.472;2023-02-15T05:26:07;35.00;;;16.50;;
34035;SDS011;63481;52.588;22.472;2023-02-15T05:27:25;31.70;;;16.00;;
34035;SDS011;63481;52.588;22.472;2023-02-15T05:28:38;28.00;;;16.60;;
34035;SDS011;63481;52.588;22.472;2023-02-15T05:29:31;30.60;;;17.10;;
34035;SDS011;63481;52.588;22.472;2023-02-15T05:30:24;31.10;;;16.90;;
34035;SDS011;63481;52.588;22.472;2023-02-15T05:31:18;29.60;;;17.60;;
34035;SDS011;63481;52.588;22.472;2023-02-15T05:32:13;32.60;;;18.40;;
34035;SDS011;63481;52.588;22.472;2023-02-15T05:33:07;33.60;;;18.20;;
34035;SDS011;63481;52.588;22.472;2023-02-15T05:33:59;33.00;;;18.80;;
34035;SDS011;63481;52.588;22.472;2023-02-15T05:34:52;32.80;;;16.60;;
34035;SDS011;63481;52.588;22.472;2023-02-15T05:35:45;33.80;;;17.70;;
34035;SDS011;63481;52.588;22.472;2023-02-15T05:36:38;35.70;;;19.50;;
34035;SDS011;63481;52.588;22.472;2023-02-15T05:37:30;33.00;;;17.50;;
34035;SDS011;63481;52.588;22.472;2023-02-15T05:38:23;32.00;;;19.40;;
34035;SDS011;63481;52.588;22.472;2023-02-15T05:39:16;29.10;;;17.30;;
34035;SDS011;63481;52.588;22.472;2023-02-15T05:40:09;31.40;;;18.20;;
34035;SDS011;63481;52.588;22.472;2023-02-15T05:41:02;31.20;;;17.30;;
34035;SDS011;63481;52.588;22.472;2023-02-15T05:41:57;33.20;;;17.00;;
34035;SDS011;63481;52.588;22.472;2023-02-15T05:42:51;26.60;;;17.10;;
34035;SDS011;63481;52.588;22.472;2023-02-15T05:43:44;31.60;;;18.00;;
34035;SDS011;63481;52.588;22.472;2023-02-15T05:44:37;29.40;;;17.80;;
34035;SDS011;63481;52.588;22.472;2023-02-15T05:45:29;29.00;;;17.20;;
34035;SDS011;63481;52.588;22.472;2023-02-15T05:46:22;30.50;;;17.10;;
34035;SDS011;63481;52.588;22.472;2023-02-15T05:47:15;29.20;;;16.60;;
34035;SDS011;63481;52.588;22.472;2023-02-15T05:48:07;29.20;;;16.70;;
34035;SDS011;63481;52.588;22.472;2023-02-15T05:49:00;28.20;;;17.50;;
34035;SDS011;63481;52.588;22.472;2023-02-15T05:49:53;31.40;;;16.60;;
34035;SDS011;63481;52.588;22.472;2023-02-15T05:50:45;30.30;;;16.00;;
34035;SDS011;63481;52.588;22.472;2023-02-15T05:51:38;28.50;;;17.20;;
34035;SDS011;63481;52.588;22.472;2023-02-15T05:52:31;30.50;;;17.30;;
34035;SDS011;63481;52.588;22.472;2023-02-15T05:53:24;26.20;;;17.00;;
34035;SDS011;63481;52.588;22.472;2023-02-15T05:54:16;31.20;;;17.60;;
34035;SDS011;63481;52.588;22.472;2023-02-15T05:55:09;28.90;;;16.50;;
34035;SDS011;63481;52.588;22.472;2023-02-15T05:56:02;27.70;;;16.10;;
34035;SDS011;63481;52.588;22.472;2023-02-15T05:56:56;28.10;;;16.20;;
34035;SDS011;63481;52.588;22.472;2023-02-15T05:57:48;29.20;;;17.10;;